createdAt,value
2023-05-12T00:01:05.128Z,54.04
2023-05-12T00:02:26.353Z,54.33
2023-05-12T00:04:02.127Z,54.41
2023-05-12T00:05:27.300Z,54.29
2023-05-12T00:06:49.086Z,54.51
2023-05-12T00:08:11.106Z,54.43
2023-05-12T00:09:44.505Z,54.56
2023-05-12T00:11:13.408Z,54.56
2023-05-12T00:12:35.090Z,54.76
2023-05-12T00:13:59.497Z,54.75
2023-05-12T00:15:24.150Z,54.75
2023-05-12T00:16:57.468Z,54.83
2023-05-12T00:18:28.601Z,55.30
2023-05-12T00:19:50.308Z,55.07
2023-05-12T00:21:14.340Z,55.23
2023-05-12T00:22:47.662Z,55.16
2023-05-12T00:24:21.594Z,55.19
2023-05-12T00:25:43.215Z,55.31
2023-05-12T00:27:16.619Z,55.21
2023-05-12T00:28:41.008Z,55.33
2023-05-12T00:30:02.756Z,55.75
2023-05-12T00:31:26.568Z,55.63
2023-05-12T00:32:50.839Z,55.91
2023-05-12T00:34:20.135Z,56.08
2023-05-12T00:35:42.057Z,56.03
2023-05-12T00:37:06.368Z,56.00
2023-05-12T00:38:41.899Z,55.95
2023-05-12T00:40:23.202Z,56.19
2023-05-12T00:41:47.658Z,56.29
2023-05-12T00:43:12.007Z,56.14
2023-05-12T00:44:47.717Z,56.50
2023-05-12T00:46:09.690Z,56.40
2023-05-12T00:47:32.272Z,56.44
2023-05-12T00:48:58.698Z,56.50
2023-05-12T00:50:27.875Z,56.52
2023-05-12T00:51:49.911Z,56.67
2023-05-12T00:53:13.668Z,56.73
2023-05-12T00:54:35.780Z,56.85
2023-05-12T00:56:04.960Z,56.65
2023-05-12T00:57:31.734Z,56.74
2023-05-12T00:58:55.895Z,57.09
2023-05-12T01:00:18.703Z,57.19
2023-05-12T01:01:54.001Z,57.13
2023-05-12T01:03:19.097Z,57.51
2023-05-12T01:04:51.040Z,57.29
2023-05-12T01:06:13.642Z,57.35
2023-05-12T01:07:47.125Z,57.43
2023-05-12T01:09:20.949Z,57.50
2023-05-12T01:10:45.086Z,57.48
2023-05-12T01:12:26.212Z,57.51
2023-05-12T01:13:48.063Z,57.51
2023-05-12T01:15:10.113Z,57.65
2023-05-12T01:16:32.036Z,57.74
2023-05-12T01:18:01.578Z,57.67
2023-05-12T01:19:25.800Z,57.85
2023-05-12T01:20:59.789Z,57.91
2023-05-12T01:22:33.483Z,57.92
2023-05-12T01:24:08.233Z,58.05
2023-05-12T01:25:37.811Z,58.16
2023-05-12T01:27:09.246Z,58.07
2023-05-12T01:28:33.601Z,58.42
2023-05-12T01:30:07.516Z,58.35
2023-05-12T01:31:31.972Z,58.34
2023-05-12T01:32:56.781Z,58.43
2023-05-12T01:34:19.104Z,58.41
2023-05-12T01:35:47.374Z,58.51
2023-05-12T01:37:16.289Z,58.79
2023-05-12T01:38:38.271Z,58.83
2023-05-12T01:40:03.259Z,58.92
2023-05-12T01:41:32.530Z,58.67
2023-05-12T01:42:56.310Z,58.78
2023-05-12T01:44:30.616Z,58.78
2023-05-12T01:46:12.706Z,58.81
2023-05-12T01:47:47.550Z,59.01
2023-05-12T01:49:21.444Z,59.01
2023-05-12T01:50:45.342Z,59.04
2023-05-12T01:52:24.969Z,58.96
2023-05-12T01:53:49.940Z,59.23
2023-05-12T01:55:11.892Z,59.26
2023-05-12T01:56:51.873Z,59.44
2023-05-12T01:58:20.989Z,59.39
2023-05-12T01:59:43.885Z,59.44
2023-05-12T02:01:06.240Z,59.72
2023-05-12T02:02:28.439Z,59.59
2023-05-12T02:03:50.056Z,59.72
2023-05-12T02:05:12.573Z,59.63
2023-05-12T02:06:44.599Z,59.67
2023-05-12T02:08:08.980Z,59.90
2023-05-12T02:09:33.112Z,60.00
2023-05-12T02:10:57.733Z,60.00
2023-05-12T02:12:20.342Z,60.09
2023-05-12T02:13:54.408Z,60.18
2023-05-12T02:15:23.236Z,60.26
2023-05-12T02:16:52.388Z,60.45
2023-05-12T02:18:17.106Z,60.46
2023-05-12T02:19:38.998Z,60.47
2023-05-12T02:21:08.952Z,60.49
2023-05-12T02:22:42.405Z,60.54
2023-05-12T02:24:12.355Z,60.61
2023-05-12T02:25:35.831Z,60.76
2023-05-12T02:26:59.210Z,60.68
2023-05-12T02:28:21.552Z,60.90
2023-05-12T02:29:45.654Z,61.05
2023-05-12T02:31:07.576Z,61.00
2023-05-12T02:32:34.611Z,61.05
2023-05-12T02:34:06.313Z,60.95
2023-05-12T02:35:31.690Z,61.07
2023-05-12T02:37:01.104Z,61.19
2023-05-12T02:38:22.881Z,61.22
2023-05-12T02:39:51.719Z,61.28
2023-05-12T02:41:15.786Z,61.27
2023-05-12T02:42:38.610Z,61.49
2023-05-12T02:44:03.499Z,61.60
2023-05-12T02:45:27.932Z,61.61
2023-05-12T02:46:49.592Z,61.67
2023-05-12T02:48:23.603Z,61.63
2023-05-12T02:49:45.345Z,61.63
2023-05-12T02:51:07.661Z,61.65
2023-05-12T02:52:36.832Z,61.74
2023-05-12T02:53:58.952Z,61.91
2023-05-12T02:55:30.330Z,61.97
2023-05-12T02:56:56.552Z,62.05
2023-05-12T02:58:30.331Z,61.99
2023-05-12T03:00:01.710Z,62.05
2023-05-12T03:01:26.082Z,62.33
2023-05-12T03:02:50.491Z,62.29
2023-05-12T03:04:12.512Z,62.29
2023-05-12T03:05:36.706Z,62.53
2023-05-12T03:07:05.499Z,63.26
2023-05-12T03:08:29.709Z,61.45
2023-05-12T03:10:03.311Z,57.42
2023-05-12T03:11:27.180Z,54.16
2023-05-12T03:12:51.171Z,53.59
2023-05-12T03:14:13.095Z,54.01
2023-05-12T03:15:34.988Z,54.72
2023-05-12T03:17:16.231Z,55.50
2023-05-12T03:18:41.552Z,56.19
2023-05-12T03:20:18.125Z,56.84
2023-05-12T03:21:42.747Z,57.31
2023-05-12T03:23:18.625Z,57.86
2023-05-12T03:24:52.410Z,58.45
2023-05-12T03:26:18.374Z,58.42
2023-05-12T03:27:43.233Z,59.05
2023-05-12T03:29:09.479Z,59.13
2023-05-12T03:30:33.706Z,59.42
2023-05-12T03:32:09.625Z,59.70
2023-05-12T03:33:40.541Z,59.95
2023-05-12T03:35:17.099Z,60.29
2023-05-12T03:36:57.964Z,60.51
2023-05-12T03:38:19.770Z,60.65
2023-05-12T03:39:41.643Z,60.88
2023-05-12T03:41:06.181Z,61.13
2023-05-12T03:42:28.559Z,61.28
2023-05-12T03:44:10.113Z,61.55
2023-05-12T03:45:31.633Z,61.76
2023-05-12T03:47:01.154Z,61.73
2023-05-12T03:48:27.599Z,62.02
2023-05-12T03:49:58.956Z,61.94
2023-05-12T03:51:22.640Z,62.32
2023-05-12T03:52:57.773Z,62.33
2023-05-12T03:54:19.809Z,63.36
2023-05-12T03:55:41.518Z,62.47
2023-05-12T03:57:05.265Z,59.46
2023-05-12T03:58:29.794Z,55.56
2023-05-12T04:00:06.412Z,53.77
2023-05-12T04:01:51.851Z,54.10
2023-05-12T04:03:25.875Z,54.82
2023-05-12T04:04:49.609Z,55.57
2023-05-12T04:06:18.733Z,56.10
2023-05-12T04:07:40.582Z,56.62
2023-05-12T04:09:04.692Z,57.04
2023-05-12T04:10:40.580Z,57.40
2023-05-12T04:12:05.031Z,58.20
2023-05-12T04:13:27.015Z,58.44
2023-05-12T04:15:08.701Z,58.55
2023-05-12T04:16:42.600Z,58.69
2023-05-12T04:18:18.310Z,59.03
2023-05-12T04:19:54.013Z,59.21
2023-05-12T04:21:18.284Z,59.37
2023-05-12T04:22:51.752Z,59.65
2023-05-12T04:24:14.084Z,59.96
2023-05-12T04:25:35.809Z,59.95
2023-05-12T04:26:57.635Z,60.18
2023-05-12T04:28:21.785Z,60.33
2023-05-12T04:29:43.615Z,60.33
2023-05-12T04:31:08.919Z,60.25
2023-05-12T04:32:33.564Z,60.29
2023-05-12T04:33:57.588Z,60.54
2023-05-12T04:35:19.981Z,60.60
2023-05-12T04:36:42.052Z,60.71
2023-05-12T04:38:04.416Z,60.74
2023-05-12T04:39:26.489Z,60.66
2023-05-12T04:41:03.581Z,60.82
2023-05-12T04:42:37.141Z,60.80
2023-05-12T04:44:00.976Z,60.89
2023-05-12T04:45:25.143Z,61.20
2023-05-12T04:46:56.457Z,60.94
2023-05-12T04:48:22.886Z,60.96
2023-05-12T04:49:47.013Z,61.06
2023-05-12T04:51:09.327Z,61.34
2023-05-12T04:52:30.828Z,61.53
2023-05-12T04:54:04.364Z,61.13
2023-05-12T04:55:28.339Z,61.22
2023-05-12T04:56:57.424Z,61.16
2023-05-12T04:58:19.870Z,60.86
2023-05-12T04:59:51.568Z,60.95
2023-05-12T05:01:23.503Z,60.85
2023-05-12T05:02:59.248Z,60.68
2023-05-12T05:04:24.136Z,61.01
2023-05-12T05:05:45.995Z,60.70
2023-05-12T05:07:19.337Z,60.78
2023-05-12T05:08:41.663Z,60.78
2023-05-12T05:10:13.279Z,60.55
2023-05-12T05:11:36.884Z,60.45
2023-05-12T05:13:07.006Z,60.62
2023-05-12T05:14:30.990Z,60.34
2023-05-12T05:15:52.978Z,60.37
2023-05-12T05:17:27.180Z,60.35
2023-05-12T05:19:05.731Z,60.07
2023-05-12T05:20:32.764Z,60.48
2023-05-12T05:21:56.951Z,60.32
2023-05-12T05:23:30.598Z,60.46
2023-05-12T05:24:55.066Z,60.24
2023-05-12T05:26:16.742Z,60.19
2023-05-12T05:27:38.984Z,60.20
2023-05-12T05:29:01.122Z,60.03
2023-05-12T05:30:34.373Z,59.63
2023-05-12T05:32:05.657Z,59.70
2023-05-12T05:33:29.800Z,59.85
2023-05-12T05:34:51.785Z,59.63
2023-05-12T05:36:29.421Z,59.55
2023-05-12T05:37:54.669Z,59.51
2023-05-12T05:39:22.870Z,59.22
2023-05-12T05:40:58.708Z,59.08
2023-05-12T05:42:21.349Z,59.01
2023-05-12T05:43:46.077Z,58.85
2023-05-12T05:45:10.312Z,58.65
2023-05-12T05:46:32.963Z,58.72
2023-05-12T05:47:56.753Z,58.48
2023-05-12T05:49:23.183Z,58.33
2023-05-12T05:50:47.780Z,58.38
2023-05-12T05:52:23.705Z,57.90
2023-05-12T05:53:48.573Z,58.09
2023-05-12T05:55:11.039Z,57.99
2023-05-12T05:56:33.436Z,57.35
2023-05-12T05:57:55.104Z,57.06
2023-05-12T05:59:17.755Z,57.10
2023-05-12T06:00:39.259Z,57.02
2023-05-12T06:02:01.880Z,56.91
2023-05-12T06:03:23.851Z,57.14
2023-05-12T06:04:57.114Z,56.86
2023-05-12T06:06:19.061Z,56.22
2023-05-12T06:07:43.071Z,55.86
2023-05-12T06:09:12.367Z,55.87
2023-05-12T06:10:43.600Z,56.04
2023-05-12T06:12:05.409Z,55.64
2023-05-12T06:13:38.969Z,55.51
2023-05-12T06:15:01.121Z,55.69
2023-05-12T06:16:22.741Z,55.27
2023-05-12T06:17:44.840Z,55.00
2023-05-12T06:19:06.684Z,54.49
2023-05-12T06:20:35.566Z,54.34
2023-05-12T06:21:58.011Z,53.92
2023-05-12T06:23:31.412Z,54.03
2023-05-12T06:24:53.378Z,54.09
2023-05-12T06:26:15.468Z,53.98
2023-05-12T06:27:39.353Z,54.04
2023-05-12T06:29:15.407Z,53.58
2023-05-12T06:30:39.254Z,54.05
2023-05-12T06:32:05.960Z,53.98
2023-05-12T06:33:27.827Z,53.69
2023-05-12T06:34:56.788Z,53.31
2023-05-12T06:36:33.411Z,53.28
2023-05-12T06:37:57.638Z,53.61
2023-05-12T06:39:21.936Z,53.42
2023-05-12T06:40:45.903Z,52.98
2023-05-12T06:42:07.793Z,52.87
2023-05-12T06:43:35.167Z,52.25
2023-05-12T06:45:06.152Z,52.43
2023-05-12T06:46:28.027Z,52.55
2023-05-12T06:47:59.108Z,52.49
2023-05-12T06:49:25.630Z,52.11
2023-05-12T06:51:19.429Z,51.74
2023-05-12T06:52:51.134Z,51.17
2023-05-12T06:54:15.353Z,50.99
2023-05-12T06:55:50.971Z,50.88
2023-05-12T06:57:22.744Z,51.27
2023-05-12T06:58:44.770Z,51.18
2023-05-12T07:00:07.481Z,50.87
2023-05-12T07:01:48.583Z,49.77
2023-05-12T07:03:22.301Z,49.90
2023-05-12T07:04:46.593Z,50.03
2023-05-12T07:06:08.519Z,49.90
2023-05-12T07:07:32.585Z,50.24
2023-05-12T07:08:54.571Z,50.59
2023-05-12T07:10:16.394Z,49.99
2023-05-12T07:11:37.823Z,49.43
2023-05-12T07:12:59.606Z,48.99
2023-05-12T07:14:26.062Z,48.68
2023-05-12T07:15:55.235Z,48.97
2023-05-12T07:17:19.188Z,48.71
2023-05-12T07:18:40.972Z,48.22
2023-05-12T07:20:04.873Z,48.19
2023-05-12T07:21:28.810Z,48.16
2023-05-12T07:22:57.984Z,47.85
2023-05-12T07:24:31.740Z,47.11
2023-05-12T07:25:55.406Z,47.11
2023-05-12T07:27:17.777Z,47.14
2023-05-12T07:28:39.734Z,47.13
2023-05-12T07:30:01.665Z,47.58
2023-05-12T07:31:23.540Z,47.46
2023-05-12T07:32:45.282Z,47.50
2023-05-12T07:34:07.254Z,46.98
2023-05-12T07:35:36.245Z,46.64
2023-05-12T07:37:15.377Z,45.80
2023-05-12T07:38:37.044Z,45.70
2023-05-12T07:40:05.343Z,45.62
2023-05-12T07:41:30.221Z,45.71
2023-05-12T07:42:55.172Z,45.49
2023-05-12T07:44:17.221Z,45.55
2023-05-12T07:45:38.794Z,46.04
2023-05-12T07:47:01.169Z,46.33
2023-05-12T07:48:25.537Z,45.92
2023-05-12T07:49:47.025Z,45.93
2023-05-12T07:51:08.756Z,46.12
2023-05-12T07:52:30.843Z,46.80
2023-05-12T07:54:04.732Z,46.14
2023-05-12T07:55:26.593Z,45.31
2023-05-12T07:56:48.580Z,44.39
2023-05-12T07:58:12.251Z,43.72
2023-05-12T07:59:33.690Z,43.51
2023-05-12T08:00:56.665Z,43.46
2023-05-12T08:02:21.036Z,43.65
2023-05-12T08:03:43.164Z,43.65
2023-05-12T08:05:04.861Z,43.27
2023-05-12T08:06:26.426Z,43.41
2023-05-12T08:07:50.685Z,43.19
2023-05-12T08:09:12.694Z,43.28
2023-05-12T08:10:40.126Z,42.98
2023-05-12T08:12:01.774Z,42.53
2023-05-12T08:13:23.415Z,42.26
2023-05-12T08:14:54.368Z,42.82
2023-05-12T08:16:16.176Z,42.87
2023-05-12T08:17:37.860Z,42.47
2023-05-12T08:18:59.744Z,41.46
2023-05-12T08:20:23.905Z,41.15
2023-05-12T08:21:53.618Z,41.30
2023-05-12T08:23:17.936Z,41.22
2023-05-12T08:24:41.604Z,41.06
2023-05-12T08:26:03.547Z,41.01
2023-05-12T08:27:27.762Z,41.03
2023-05-12T08:28:49.524Z,41.31
2023-05-12T08:30:13.514Z,40.95
2023-05-12T08:31:38.146Z,40.85
2023-05-12T08:33:00.249Z,40.85
2023-05-12T08:34:31.126Z,40.74
2023-05-12T08:35:52.838Z,40.78
2023-05-12T08:37:34.774Z,40.45
2023-05-12T08:38:57.009Z,40.59
2023-05-12T08:40:18.866Z,40.89
2023-05-12T08:43:57.201Z,40.17
2023-05-12T08:45:30.845Z,39.53
2023-05-12T08:46:52.700Z,39.31
2023-05-12T08:48:15.746Z,39.25
2023-05-12T08:49:44.779Z,39.79
2023-05-12T08:51:07.025Z,39.49
2023-05-12T08:52:29.447Z,39.27
2023-05-12T08:54:05.000Z,39.50
2023-05-12T08:55:32.783Z,39.18
2023-05-12T08:58:41.556Z,39.04
2023-05-12T09:00:04.810Z,38.29
2023-05-12T09:01:45.076Z,38.14
2023-05-12T09:03:09.491Z,38.08
2023-05-12T09:04:43.142Z,38.03
2023-05-12T09:06:04.620Z,37.85
2023-05-12T09:07:38.346Z,37.58
2023-05-12T09:09:11.599Z,38.14
2023-05-12T09:10:35.956Z,38.02
2023-05-12T09:12:09.536Z,37.89
2023-05-12T09:13:31.235Z,38.35
2023-05-12T09:14:52.999Z,38.08
2023-05-12T09:16:14.784Z,37.90
2023-05-12T09:17:38.548Z,38.18
2023-05-12T09:19:00.309Z,38.21
2023-05-12T09:20:30.914Z,37.74
2023-05-12T09:21:53.057Z,37.79
2023-05-12T09:23:14.776Z,38.03
2023-05-12T09:24:39.042Z,37.93
2023-05-12T09:26:12.576Z,37.67
2023-05-12T09:27:34.256Z,37.45
2023-05-12T09:28:58.040Z,36.66
2023-05-12T09:30:22.595Z,37.29
2023-05-12T09:31:46.809Z,37.31
2023-05-12T09:33:08.489Z,37.13
2023-05-12T09:34:41.755Z,37.02
2023-05-12T09:36:03.248Z,37.45
2023-05-12T09:37:25.316Z,37.53
2023-05-12T09:38:47.183Z,36.72
2023-05-12T09:40:08.781Z,37.72
2023-05-12T09:41:30.213Z,37.65
2023-05-12T09:42:54.430Z,37.22
2023-05-12T09:44:26.795Z,37.20
2023-05-12T09:45:50.888Z,36.37
2023-05-12T09:47:12.631Z,36.74
2023-05-12T09:48:38.946Z,36.34
2023-05-12T09:50:01.560Z,35.81
2023-05-12T09:51:23.503Z,36.11
2023-05-12T09:52:45.436Z,36.14
2023-05-12T09:54:08.029Z,35.54
2023-05-12T09:55:30.015Z,35.49
2023-05-12T09:57:03.811Z,35.54
2023-05-12T09:58:40.519Z,36.26
2023-05-12T10:00:02.359Z,36.26
2023-05-12T10:01:27.313Z,36.13
2023-05-12T10:02:48.888Z,35.50
2023-05-12T10:04:10.674Z,35.78
2023-05-12T10:05:40.069Z,35.28
2023-05-12T10:07:08.788Z,35.14
2023-05-12T10:08:30.751Z,34.90
2023-05-12T10:09:54.497Z,34.56
2023-05-12T10:11:27.951Z,35.42
2023-05-12T10:12:52.763Z,35.59
2023-05-12T10:14:16.682Z,35.85
2023-05-12T10:15:58.499Z,34.73
2023-05-12T10:17:22.768Z,34.65
2023-05-12T10:18:59.288Z,33.97
2023-05-12T10:20:21.267Z,33.69
2023-05-12T10:22:00.016Z,34.00
2023-05-12T10:23:24.182Z,34.53
2023-05-12T10:25:04.944Z,34.31
2023-05-12T10:26:36.427Z,34.01
2023-05-12T10:28:00.949Z,34.33
2023-05-12T10:29:29.915Z,33.73
2023-05-12T10:31:04.513Z,34.60
2023-05-12T10:32:33.129Z,34.10
2023-05-12T10:33:55.040Z,34.25
2023-05-12T10:35:28.447Z,34.63
2023-05-12T10:37:09.185Z,34.17
2023-05-12T10:38:33.058Z,34.41
2023-05-12T10:40:08.473Z,35.09
2023-05-12T10:41:51.147Z,34.92
2023-05-12T10:43:37.091Z,34.64
2023-05-12T10:45:07.055Z,34.51
2023-05-12T10:46:41.993Z,33.63
2023-05-12T10:48:10.777Z,34.48
2023-05-12T10:49:44.584Z,33.89
2023-05-12T10:51:14.005Z,34.40
2023-05-12T10:52:37.857Z,34.12
2023-05-12T10:54:14.791Z,33.18
2023-05-12T10:55:56.930Z,32.60
2023-05-12T10:57:34.523Z,32.20
2023-05-12T10:59:31.536Z,32.47
2023-05-12T11:00:56.087Z,32.54
2023-05-12T11:02:34.740Z,31.69
2023-05-12T11:04:01.261Z,31.86
2023-05-12T11:05:25.806Z,31.83
2023-05-12T11:06:51.601Z,31.07
2023-05-12T11:08:14.224Z,30.77
2023-05-12T11:09:37.973Z,31.00
2023-05-12T11:11:06.707Z,31.05
2023-05-12T11:12:40.127Z,30.75
2023-05-12T11:14:15.820Z,31.42
2023-05-12T11:15:51.164Z,30.96
2023-05-12T11:17:27.334Z,31.06
2023-05-12T11:18:59.103Z,30.97
2023-05-12T11:20:20.954Z,31.50
2023-05-12T11:21:47.831Z,31.05
2023-05-12T11:23:28.645Z,31.05
2023-05-12T11:24:50.544Z,31.50
2023-05-12T11:26:17.337Z,30.67
2023-05-12T11:27:44.697Z,30.29
2023-05-12T11:29:14.265Z,29.77
2023-05-12T11:30:35.922Z,29.52
2023-05-12T11:32:00.401Z,29.39
2023-05-12T11:33:22.891Z,29.62
2023-05-12T11:34:58.459Z,29.93
2023-05-12T11:36:27.516Z,29.86
2023-05-12T11:38:03.561Z,29.65
2023-05-12T11:39:40.956Z,29.79
2023-05-12T11:41:14.510Z,29.95
2023-05-12T11:42:57.497Z,29.64
2023-05-12T11:44:21.690Z,29.45
2023-05-12T11:45:55.280Z,28.76
2023-05-12T11:47:28.456Z,28.12
2023-05-12T11:49:22.269Z,28.51
2023-05-12T11:50:44.083Z,29.28
2023-05-12T11:52:07.873Z,29.06
2023-05-12T11:53:43.573Z,28.66
2023-05-12T11:55:28.891Z,27.88
2023-05-12T11:57:02.515Z,28.06
2023-05-12T11:58:30.619Z,28.79
2023-05-12T12:00:15.626Z,28.94
2023-05-12T12:01:37.512Z,28.86
2023-05-12T12:03:11.311Z,27.54
2023-05-12T12:05:06.568Z,27.33
2023-05-12T12:06:32.269Z,27.44
2023-05-12T12:07:55.992Z,27.50
2023-05-12T12:09:30.636Z,27.55
2023-05-12T12:11:11.296Z,28.14
2023-05-12T12:12:52.436Z,28.39
2023-05-12T12:14:16.228Z,27.55
2023-05-12T12:15:50.391Z,26.91
2023-05-12T12:17:31.391Z,26.85
2023-05-12T12:19:07.484Z,27.48
2023-05-12T12:20:31.401Z,26.92
2023-05-12T12:22:16.340Z,26.46
2023-05-12T12:23:50.527Z,26.33
2023-05-12T12:25:13.303Z,26.58
2023-05-12T12:26:38.899Z,26.92
2023-05-12T12:28:08.406Z,26.12
2023-05-12T12:29:43.860Z,25.98
2023-05-12T12:31:10.087Z,26.28
2023-05-12T12:32:45.445Z,26.28
2023-05-12T12:34:19.205Z,26.50
2023-05-12T12:36:04.216Z,26.05
2023-05-12T12:37:37.880Z,27.04
2023-05-12T12:38:59.298Z,26.47
2023-05-12T12:40:35.100Z,26.11
2023-05-12T12:41:58.979Z,26.35
2023-05-12T12:43:23.243Z,25.56
2023-05-12T12:44:59.238Z,25.48
2023-05-12T12:46:28.874Z,25.08
2023-05-12T12:48:14.095Z,25.29
2023-05-12T12:49:47.454Z,25.71
2023-05-12T12:51:45.677Z,25.37
2023-05-12T12:53:09.778Z,25.51
2023-05-12T12:54:32.070Z,25.60
2023-05-12T12:56:07.944Z,25.45
2023-05-12T12:57:29.760Z,25.24
2023-05-12T12:58:58.602Z,25.05
2023-05-12T13:00:32.435Z,25.13
2023-05-12T13:02:07.777Z,25.15
2023-05-12T13:03:29.872Z,25.34
2023-05-12T13:05:05.222Z,25.07
2023-05-12T13:06:29.447Z,25.35
2023-05-12T13:07:53.488Z,24.86
2023-05-12T13:09:22.773Z,24.43
2023-05-12T13:10:54.552Z,24.28
2023-05-12T13:12:30.402Z,24.42
2023-05-12T13:13:52.000Z,23.97
2023-05-12T13:15:17.491Z,23.51
2023-05-12T13:16:58.350Z,24.60
2023-05-12T13:18:31.962Z,24.02
2023-05-12T13:20:17.244Z,24.00
2023-05-12T13:21:58.590Z,24.03
2023-05-12T13:23:39.410Z,24.04
2023-05-12T13:25:16.559Z,24.36
2023-05-12T13:26:52.202Z,25.01
2023-05-12T13:28:32.797Z,24.07
2023-05-12T13:30:14.083Z,23.28
2023-05-12T13:31:47.380Z,23.08
2023-05-12T13:33:16.408Z,22.78
2023-05-12T13:34:47.352Z,23.03
2023-05-12T13:36:16.925Z,23.25
2023-05-12T13:38:01.817Z,22.70
2023-05-12T13:39:46.063Z,23.00
2023-05-12T13:41:10.251Z,22.89
2023-05-12T13:42:46.820Z,22.74
2023-05-12T13:44:22.825Z,22.52
2023-05-12T13:46:07.952Z,22.32
2023-05-12T13:47:43.507Z,22.76
2023-05-12T13:49:28.404Z,21.93
2023-05-12T13:50:57.585Z,22.17
2023-05-12T13:52:43.329Z,22.38
2023-05-12T13:54:14.706Z,22.37
2023-05-12T13:55:52.310Z,22.09
2023-05-12T13:57:25.840Z,21.79
2023-05-12T13:58:49.517Z,21.93
2023-05-12T14:00:30.534Z,22.68
2023-05-12T14:02:16.221Z,22.26
2023-05-12T14:04:01.056Z,22.62
2023-05-12T14:05:34.854Z,22.20
2023-05-12T14:06:59.015Z,22.28
2023-05-12T14:08:32.332Z,21.94
2023-05-12T14:10:18.568Z,21.84
2023-05-12T14:11:52.000Z,22.24
2023-05-12T14:13:21.275Z,22.23
2023-05-12T14:14:58.104Z,22.23
2023-05-12T14:16:25.992Z,22.43
2023-05-12T14:18:00.007Z,22.26
2023-05-12T14:19:40.596Z,22.73
2023-05-12T14:21:25.751Z,23.12
2023-05-12T14:23:01.570Z,23.22
2023-05-12T14:24:32.889Z,22.99
2023-05-12T14:25:58.814Z,23.24
2023-05-12T14:27:32.242Z,23.61
2023-05-12T14:29:12.816Z,23.75
2023-05-12T14:30:48.406Z,23.86
2023-05-12T14:32:26.566Z,23.86
2023-05-12T14:34:11.234Z,24.18
2023-05-12T14:35:55.787Z,24.12
2023-05-12T14:37:24.047Z,24.06
2023-05-12T14:39:04.395Z,24.21
2023-05-12T14:40:52.258Z,24.52
2023-05-12T14:42:38.160Z,24.46
2023-05-12T14:44:15.221Z,24.70
2023-05-12T14:46:00.427Z,24.45
2023-05-12T14:47:24.543Z,24.19
2023-05-12T14:48:53.409Z,24.27
2023-05-12T14:50:28.207Z,24.23
2023-05-12T14:51:55.586Z,24.04
2023-05-12T14:53:50.553Z,23.53
2023-05-12T14:55:12.443Z,23.76
2023-05-12T14:56:48.169Z,22.78
2023-05-12T14:58:34.773Z,23.13
2023-05-12T15:00:29.333Z,23.16
2023-05-12T15:02:02.557Z,22.56
2023-05-12T15:03:36.036Z,22.18
2023-05-12T15:05:07.054Z,21.76
2023-05-12T15:06:43.721Z,21.92
2023-05-12T15:08:29.152Z,21.65
2023-05-12T15:10:10.607Z,21.87
2023-05-12T15:11:50.701Z,21.21
2023-05-12T15:13:21.437Z,21.24
2023-05-12T15:15:06.145Z,21.18
2023-05-12T15:16:28.237Z,21.12
2023-05-12T15:17:52.818Z,20.65
2023-05-12T15:19:17.528Z,20.92
2023-05-12T15:20:41.816Z,20.61
2023-05-12T15:22:07.948Z,20.72
2023-05-12T15:23:43.254Z,20.69
2023-05-12T15:25:16.831Z,20.73
2023-05-12T15:26:49.931Z,20.80
2023-05-12T15:28:43.580Z,20.59
2023-05-12T15:30:12.513Z,20.69
2023-05-12T15:32:05.480Z,20.75
2023-05-12T15:33:39.433Z,20.45
2023-05-12T15:35:12.981Z,20.78
2023-05-12T15:36:57.603Z,20.77
2023-05-12T15:38:32.955Z,20.87
2023-05-12T15:40:18.092Z,20.60
2023-05-12T15:41:50.862Z,20.81
2023-05-12T15:43:12.636Z,21.01
2023-05-12T15:44:57.380Z,21.12
2023-05-12T15:46:33.473Z,21.46
2023-05-12T15:48:07.983Z,21.63
2023-05-12T15:50:03.589Z,22.07
2023-05-12T15:51:36.730Z,21.55
2023-05-12T15:52:58.540Z,21.76
2023-05-12T15:54:39.336Z,21.21
2023-05-12T15:56:15.104Z,21.33
2023-05-12T15:57:39.144Z,21.37
2023-05-12T15:59:14.553Z,21.43
2023-05-12T16:00:59.294Z,21.36
2023-05-12T16:02:33.433Z,21.78
2023-05-12T16:04:07.184Z,21.80
2023-05-12T16:05:41.224Z,21.82
2023-05-12T16:07:03.300Z,22.19
2023-05-12T16:08:25.229Z,22.05
2023-05-12T16:09:49.193Z,22.05
2023-05-12T16:11:18.283Z,22.56
2023-05-12T16:12:42.701Z,22.80
2023-05-12T16:14:16.471Z,23.16
2023-05-12T16:15:56.940Z,23.34
2023-05-12T16:17:32.386Z,23.59
2023-05-12T16:19:15.205Z,23.78
2023-05-12T16:20:37.068Z,24.19
2023-05-12T16:21:59.417Z,24.83
2023-05-12T16:23:34.763Z,25.07
2023-05-12T16:25:10.302Z,25.18
2023-05-12T16:26:55.092Z,25.32
2023-05-12T16:28:40.053Z,25.73
2023-05-12T16:30:20.730Z,25.78
2023-05-12T16:31:53.896Z,26.08
2023-05-12T16:33:27.398Z,26.47
2023-05-12T16:35:00.621Z,26.55
2023-05-12T16:36:24.179Z,26.78
2023-05-12T16:38:04.352Z,27.19
2023-05-12T16:39:38.462Z,27.16
2023-05-12T16:41:02.582Z,27.30
2023-05-12T16:42:47.292Z,27.71
2023-05-12T16:44:20.675Z,28.09
2023-05-12T16:45:57.126Z,28.20
2023-05-12T16:47:21.177Z,28.55
2023-05-12T16:48:50.816Z,28.86
2023-05-12T16:50:12.503Z,29.12
2023-05-12T16:51:44.250Z,29.24
2023-05-12T16:53:06.490Z,29.33
2023-05-12T16:54:28.195Z,29.17
2023-05-12T16:55:51.933Z,29.51
2023-05-12T16:57:16.060Z,29.58
2023-05-12T16:58:42.323Z,29.66
2023-05-12T17:00:06.655Z,30.12
2023-05-12T17:01:38.252Z,30.44
2023-05-12T17:03:00.947Z,30.41
2023-05-12T17:04:43.315Z,30.53
2023-05-12T17:06:05.207Z,30.63
2023-05-12T17:07:28.936Z,30.64
2023-05-12T17:08:55.098Z,30.87
2023-05-12T17:10:19.573Z,30.98
2023-05-12T17:11:55.186Z,31.42
2023-05-12T17:13:16.986Z,31.38
2023-05-12T17:14:38.877Z,31.38
2023-05-12T17:16:00.575Z,31.85
2023-05-12T17:17:36.340Z,31.84
2023-05-12T17:20:45.861Z,32.22
2023-05-12T17:22:19.328Z,32.96
2023-05-12T17:23:48.634Z,34.37
2023-05-12T17:25:12.969Z,33.75
2023-05-12T17:26:34.808Z,34.18
2023-05-12T17:27:58.792Z,34.89
2023-05-12T17:29:34.813Z,35.13
2023-05-12T17:31:08.653Z,35.47
2023-05-12T17:32:41.898Z,35.64
2023-05-12T17:34:10.791Z,35.47
2023-05-12T17:35:35.828Z,35.86
2023-05-12T17:37:08.968Z,36.51
2023-05-12T17:38:30.645Z,36.40
2023-05-12T17:39:52.368Z,36.16
2023-05-12T17:41:14.351Z,36.13
2023-05-12T17:42:45.777Z,35.78
2023-05-12T17:44:10.067Z,35.87
2023-05-12T17:45:47.357Z,36.03
2023-05-12T17:47:17.136Z,36.20
2023-05-12T17:48:39.009Z,36.38
2023-05-12T17:50:12.019Z,35.91
2023-05-12T17:51:33.631Z,36.52
2023-05-12T17:52:57.421Z,35.78
2023-05-12T17:54:24.601Z,36.20
2023-05-12T17:55:51.268Z,36.06
2023-05-12T17:57:13.244Z,36.41
2023-05-12T17:58:44.405Z,36.01
2023-05-12T18:00:13.512Z,36.40
2023-05-12T18:01:49.754Z,36.35
2023-05-12T18:03:23.172Z,36.22
2023-05-12T18:05:08.027Z,36.88
2023-05-12T18:06:41.600Z,36.92
2023-05-12T18:08:13.205Z,36.77
2023-05-12T18:09:56.239Z,37.09
2023-05-12T18:11:41.295Z,36.75
2023-05-12T18:13:15.416Z,37.52
2023-05-12T18:15:00.219Z,37.60
2023-05-12T18:16:33.969Z,37.58
2023-05-12T18:18:07.772Z,37.22
2023-05-12T18:19:40.870Z,37.49
2023-05-12T18:21:02.828Z,37.40
2023-05-12T18:22:36.207Z,37.20
2023-05-12T18:24:00.316Z,37.89
2023-05-12T18:25:40.773Z,38.05
2023-05-12T18:27:04.526Z,37.77
2023-05-12T18:28:34.775Z,37.75
2023-05-12T18:29:56.129Z,38.14
2023-05-12T18:31:33.302Z,37.95
2023-05-12T18:33:09.605Z,37.99
2023-05-12T18:34:33.774Z,38.12
2023-05-12T18:36:02.913Z,38.25
2023-05-12T18:37:36.274Z,38.56
2023-05-12T18:39:00.206Z,38.45
2023-05-12T18:40:29.959Z,38.93
2023-05-12T18:41:51.651Z,38.83
2023-05-12T18:43:15.800Z,38.96
2023-05-12T18:44:42.122Z,39.06
2023-05-12T18:46:03.920Z,39.05
2023-05-12T18:47:33.353Z,38.94
2023-05-12T18:48:55.468Z,39.12
2023-05-12T18:50:19.717Z,39.32
2023-05-12T18:51:43.576Z,39.22
2023-05-12T18:53:05.368Z,39.43
2023-05-12T18:54:27.426Z,39.24
2023-05-12T18:55:51.582Z,39.46
2023-05-12T18:57:15.261Z,39.52
2023-05-12T18:58:38.843Z,40.29
2023-05-12T19:00:00.417Z,40.35
2023-05-12T19:01:24.686Z,40.19
2023-05-12T19:02:47.658Z,40.96
2023-05-12T19:04:11.985Z,40.91
2023-05-12T19:05:34.076Z,40.99
2023-05-12T19:06:55.613Z,41.07
2023-05-12T19:08:19.778Z,41.03
2023-05-12T19:09:41.977Z,41.34
2023-05-12T19:11:11.396Z,41.95
2023-05-12T19:12:33.228Z,41.47
2023-05-12T19:13:54.930Z,42.33